Time;durP1;ratioP1;P1;durP2;ratioP2;P2;SDS_P1;SDS_P2;PMS_P1;PMS_P2;Temp;Humidity;BMP_temperature;BMP_pressure;BME280_temperature;BME280_humidity;BME280_pressure;Samples;Min_cycle;Max_cycle;Signal;HPM_P1;HPM_P2
2023/07/04 00:00:29;;;;;;;6.53;2.58;;;16.10;99.90;;;;;;10314021;28;20239;-83
2023/07/04 00:05:53;;;;;;;7.25;2.58;;;16.10;99.90;;;;;;10317022;28;20552;-83
2023/07/04 00:11:14;;;;;;;6.30;2.50;;;16.10;99.90;;;;;;10340769;28;20212;-83
2023/07/04 00:16:36;;;;;;;7.00;2.80;;;16.10;99.90;;;;;;10348881;28;20280;-83
2023/07/04 00:21:57;;;;;;;6.40;2.50;;;16.10;99.90;;;;;;10348464;28;20236;-83
2023/07/04 00:27:19;;;;;;;10.77;3.00;;;16.00;99.90;;;;;;10343801;28;20563;-83
2023/07/04 00:32:40;;;;;;;4.68;2.30;;;16.00;99.90;;;;;;10348427;28;20557;-83
2023/07/04 00:38:02;;;;;;;7.45;3.13;;;16.00;99.90;;;;;;10361577;28;20215;-83
2023/07/04 00:43:24;;;;;;;7.28;2.70;;;16.00;99.90;;;;;;10316744;28;20263;-83
2023/07/04 00:48:47;;;;;;;5.53;2.97;;;15.80;99.90;;;;;;10321049;28;20204;-83
2023/07/04 00:54:08;;;;;;;9.35;2.75;;;15.80;99.90;;;;;;10324117;28;20494;-83
2023/07/04 00:59:37;;;;;;;6.82;2.88;;;15.80;99.90;;;;;;10320208;28;20265;-83
2023/07/04 01:05:05;;;;;;;4.85;2.60;;;15.80;99.90;;;;;;10320832;28;20196;-83
2023/07/04 01:10:47;;;;;;;8.98;2.97;;;15.90;99.90;;;;;;10296206;28;20242;-83
2023/07/04 01:16:12;;;;;;;5.70;2.45;;;15.90;99.90;;;;;;10315241;28;20196;-83
2023/07/04 01:21:34;;;;;;;6.78;2.45;;;15.80;99.90;;;;;;10346032;28;20231;-83
2023/07/04 01:26:56;;;;;;;4.20;2.47;;;15.80;99.90;;;;;;10325520;28;20288;-83
2023/07/04 01:32:19;;;;;;;6.68;2.42;;;15.80;99.90;;;;;;10352367;28;20263;-83
2023/07/04 01:37:41;;;;;;;5.72;2.58;;;15.70;99.90;;;;;;10337096;28;20256;-83
2023/07/04 01:43:04;;;;;;;4.88;2.83;;;15.80;99.90;;;;;;10339228;28;20214;-83
2023/07/04 01:48:26;;;;;;;8.70;3.47;;;15.80;99.90;;;;;;10310319;28;20217;-81
2023/07/04 01:53:47;;;;;;;5.68;2.88;;;15.80;93.30;;;;;;10319225;28;20192;-83
2023/07/04 01:59:09;;;;;;;8.00;3.10;;;15.90;56.90;;;;;;10335866;28;20455;-83
2023/07/04 02:04:31;;;;;;;4.47;2.35;;;15.90;61.80;;;;;;10318048;28;20305;-82
2023/07/04 02:09:53;;;;;;;5.82;3.10;;;15.80;49.90;;;;;;10332429;28;20239;-83
2023/07/04 02:15:14;;;;;;;13.73;3.55;;;15.90;52.30;;;;;;10348206;28;20463;-81
2023/07/04 02:20:36;;;;;;;5.28;2.70;;;15.80;47.00;;;;;;10344093;28;20229;-81
2023/07/04 02:25:57;;;;;;;6.63;3.15;;;15.80;36.70;;;;;;10344209;28;20192;-84
2023/07/04 02:31:19;;;;;;;6.65;2.58;;;15.80;36.80;;;;;;10316664;28;20212;-81
2023/07/04 02:36:41;;;;;;;6.82;2.72;;;15.80;2.80;;;;;;10358069;28;20554;-83
2023/07/04 02:42:04;;;;;;;6.53;3.17;;;15.80;1.00;;;;;;10336566;28;20238;-81
2023/07/04 02:47:26;;;;;;;7.47;3.20;;;15.80;1.00;;;;;;10302741;28;20309;-83
2023/07/04 02:52:53;;;;;;;7.45;2.78;;;15.80;1.00;;;;;;10303702;28;20235;-83
2023/07/04 02:58:16;;;;;;;7.25;2.45;;;15.80;1.00;;;;;;10333056;28;20220;-83
2023/07/04 03:03:37;;;;;;;7.30;2.80;;;15.90;1.00;;;;;;10341821;28;20207;-83
2023/07/04 03:08:59;;;;;;;4.18;2.22;;;15.80;17.10;;;;;;10341953;28;20327;-83
2023/07/04 03:14:21;;;;;;;7.03;2.72;;;15.90;25.30;;;;;;10310443;28;20523;-83
2023/07/04 03:19:43;;;;;;;4.50;2.58;;;15.90;34.50;;;;;;10333542;28;20450;-83
2023/07/04 03:25:06;;;;;;;5.22;2.60;;;16.00;41.60;;;;;;10354924;28;20547;-83
2023/07/04 03:30:27;;;;;;;9.95;2.83;;;16.00;61.20;;;;;;10367269;28;20204;-83
2023/07/04 03:35:55;;;;;;;6.22;2.88;;;16.00;96.40;;;;;;10342349;28;20188;-83
2023/07/04 03:41:19;;;;;;;6.25;2.92;;;15.90;98.00;;;;;;10336013;28;20568;-83
2023/07/04 03:46:41;;;;;;;9.43;2.92;;;15.80;90.50;;;;;;10340322;28;20192;-83
2023/07/04 03:52:02;;;;;;;15.80;3.15;;;15.80;97.10;;;;;;10340781;28;20459;-83
2023/07/04 03:57:24;;;;;;;7.18;3.05;;;15.60;99.90;;;;;;10323925;28;20203;-83
2023/07/04 04:02:45;;;;;;;9.38;4.20;;;15.70;99.90;;;;;;10326995;28;20522;-82
2023/07/04 04:08:06;;;;;;;7.70;3.65;;;15.80;70.00;;;;;;10326671;28;20235;-83
2023/07/04 04:13:29;;;;;;;8.05;4.22;;;15.90;57.50;;;;;;10350918;28;20391;-83
2023/07/04 04:18:51;;;;;;;10.18;3.78;;;16.00;48.50;;;;;;10326598;28;20223;-82
2023/07/04 04:24:13;;;;;;;8.07;3.72;;;16.10;34.40;;;;;;10340025;28;20203;-81
2023/07/04 04:29:35;;;;;;;13.68;4.35;;;16.10;15.80;;;;;;10321527;28;20438;-82
2023/07/04 04:34:56;;;;;;;11.23;5.32;;;16.10;5.50;;;;;;10339800;28;20499;-81
2023/07/04 04:40:17;;;;;;;10.75;4.68;;;16.10;46.10;;;;;;10337210;28;20303;-81
2023/07/04 04:45:39;;;;;;;7.55;3.50;;;16.20;32.00;;;;;;10337701;28;20271;-81
2023/07/04 04:51:07;;;;;;;6.60;3.08;;;16.20;20.20;;;;;;10339806;28;20196;-81
2023/07/04 04:56:29;;;;;;;11.10;3.85;;;16.20;1.00;;;;;;10333360;28;20504;-81
2023/07/04 05:01:50;;;;;;;7.97;4.00;;;16.20;1.00;;;;;;10330241;28;20494;-82
2023/07/04 05:07:12;;;;;;;10.25;4.05;;;16.30;1.00;;;;;;10346905;28;20470;-82
2023/07/04 05:12:34;;;;;;;8.52;3.90;;;16.50;1.00;;;;;;10328869;28;20212;-82
2023/07/04 05:17:56;;;;;;;11.43;4.28;;;16.60;1.00;;;;;;10308500;28;20279;-81
2023/07/04 05:23:18;;;;;;;8.88;3.78;;;16.70;1.00;;;;;;10305836;28;20371;-81
2023/07/04 05:28:39;;;;;;;7.07;3.28;;;16.90;91.70;;;;;;10315122;28;20220;-81
2023/07/04 05:34:01;;;;;;;9.20;3.55;;;17.10;1.00;;;;;;10344306;28;20384;-82
2023/07/04 05:39:22;;;;;;;11.20;5.53;;;17.20;1.00;;;;;;10344773;28;20225;-82
2023/07/04 05:44:44;;;;;;;13.70;4.70;;;17.30;1.00;;;;;;10326536;28;20235;-81
2023/07/04 05:50:06;;;;;;;7.28;3.88;;;17.50;1.00;;;;;;10304550;28;20202;-81
2023/07/04 05:55:27;;;;;;;8.32;3.90;;;17.70;1.00;;;;;;10304758;28;20186;-81
2023/07/04 06:00:48;;;;;;;10.40;3.80;;;17.80;1.00;;;;;;10307090;28;20248;-82
2023/07/04 06:06:24;;;;;;;11.20;3.60;;;18.20;1.00;;;;;;10357490;28;20193;-82
2023/07/04 06:11:48;;;;;;;12.10;3.85;;;18.20;1.00;;;;;;10343872;28;20268;-82
2023/07/04 06:17:09;;;;;;;10.93;4.15;;;18.50;1.00;;;;;;10325925;28;20206;-82
2023/07/04 06:22:30;;;;;;;8.93;4.10;;;18.50;1.00;;;;;;10303055;28;20244;-81
2023/07/04 06:27:53;;;;;;;16.33;3.85;;;18.90;1.00;;;;;;10314470;28;20232;-82
2023/07/04 06:33:15;;;;;;;13.15;4.22;;;19.00;1.00;;;;;;10349837;28;20288;-82
2023/07/04 06:38:37;;;;;;;9.45;3.60;;;19.00;99.90;;;;;;10327209;28;20204;-82
2023/07/04 06:43:58;;;;;;;12.05;3.38;;;19.30;99.90;;;;;;10342021;28;20198;-82
2023/07/04 06:49:19;;;;;;;9.73;3.30;;;19.50;99.90;;;;;;10318462;28;20202;-82
2023/07/04 06:54:41;;;;;;;12.85;3.83;;;19.50;99.90;;;;;;10302433;28;20194;-83
2023/07/04 07:00:02;;;;;;;9.65;3.92;;;19.70;99.90;;;;;;10312051;28;20224;-82
2023/07/04 07:05:24;;;;;;;12.75;4.70;;;20.00;99.90;;;;;;10312168;28;20508;-82
2023/07/04 07:11:04;;;;;;;10.98;4.03;;;20.20;99.90;;;;;;10287957;28;20541;-81
2023/07/04 07:16:26;;;;;;;10.43;3.67;;;20.70;99.90;;;;;;10327597;28;20202;-80
2023/07/04 07:21:47;;;;;;;9.77;3.90;;;20.70;99.90;;;;;;10336453;28;20236;-83
2023/07/04 07:27:09;;;;;;;9.18;4.10;;;20.90;99.90;;;;;;10379662;28;20243;-81
2023/07/04 07:32:31;;;;;;;37.88;5.15;;;21.60;99.90;;;;;;10345284;28;20261;-83
2023/07/04 07:37:52;;;;;;;14.43;4.28;;;22.20;99.90;;;;;;10388072;28;20428;-82
2023/07/04 07:43:14;;;;;;;9.10;4.18;;;22.80;99.90;;;;;;10372431;28;20217;-83
2023/07/04 07:48:35;;;;;;;8.60;3.85;;;22.90;99.90;;;;;;10350447;28;20186;-81
2023/07/04 07:53:58;;;;;;;11.77;4.40;;;22.50;99.90;;;;;;10366071;28;20214;-82
2023/07/04 07:59:21;;;;;;;13.80;4.60;;;22.40;99.90;;;;;;10379128;28;20228;-83
2023/07/04 08:04:42;;;;;;;13.05;4.88;;;22.90;99.90;;;;;;10403854;28;20393;-79
2023/07/04 08:10:04;;;;;;;7.18;3.90;;;23.00;99.90;;;;;;10389440;28;20233;-80
2023/07/04 08:15:25;;;;;;;6.60;3.50;;;22.90;99.90;;;;;;10385640;28;20252;-84
2023/07/04 08:21:01;;;;;;;31.67;5.15;;;23.30;99.90;;;;;;10379958;28;20244;-80
2023/07/04 08:26:25;;;;;;;11.68;4.53;;;23.20;99.90;;;;;;10377028;28;20214;-80
2023/07/04 08:31:46;;;;;;;16.23;5.65;;;22.70;99.90;;;;;;10364749;28;20205;-81
2023/07/04 08:37:07;;;;;;;14.07;4.57;;;22.70;99.90;;;;;;10381933;28;20255;-89
2023/07/04 08:42:32;;;;;;;11.98;4.47;;;22.40;99.90;;;;;;10397179;28;20340;-83
2023/07/04 08:47:55;;;;;;;8.43;4.10;;;23.10;99.90;;;;;;10358215;28;20281;-84
2023/07/04 08:53:24;;;;;;;18.55;4.40;;;22.90;99.90;;;;;;10381077;28;20452;-83
2023/07/04 08:59:05;;;;;;;15.40;4.53;;;22.30;99.90;;;;;;10353073;28;20202;-80
2023/07/04 09:04:28;;;;;;;10.25;4.18;;;22.20;99.90;;;;;;10381616;28;20197;-80
2023/07/04 09:10:23;;;;;;;12.95;4.10;;;22.90;99.90;;;;;;10406737;28;20245;-84
2023/07/04 09:15:47;;;;;;;11.90;3.90;;;22.80;99.90;;;;;;10378996;28;20320;-80
2023/07/04 09:21:14;;;;;;;12.48;4.60;;;22.10;99.90;;;;;;10367198;28;20244;-80
2023/07/04 09:26:50;;;;;;;16.80;4.32;;;22.30;99.90;;;;;;10373093;28;20515;-81
2023/07/04 09:32:12;;;;;;;9.95;4.25;;;21.90;99.90;;;;;;10391859;28;20209;-84
2023/07/04 09:37:57;;;;;;;6.90;3.97;;;22.40;99.90;;;;;;10379222;28;20308;-82
2023/07/04 09:43:44;;;;;;;13.15;3.80;;;23.30;99.90;;;;;;10391006;28;20540;-82
2023/07/04 09:49:21;;;;;;;9.82;2.80;;;22.90;99.90;;;;;;10377256;28;20228;-85
2023/07/04 09:54:44;;;;;;;5.10;2.70;;;22.40;99.90;;;;;;10381412;28;20231;-85
2023/07/04 10:00:26;;;;;;;16.83;3.20;;;22.00;99.90;;;;;;10388905;28;20236;-83
2023/07/04 10:05:48;;;;;;;15.95;3.47;;;21.70;99.90;;;;;;10407235;28;20193;-87
2023/07/04 10:11:10;;;;;;;36.03;4.05;;;22.00;99.90;;;;;;10400474;28;20208;-83
2023/07/04 10:16:32;;;;;;;5.78;2.40;;;22.90;99.90;;;;;;10367527;28;20233;-82
2023/07/04 10:21:54;;;;;;;6.50;2.80;;;23.50;99.90;;;;;;10358494;28;20229;-83
2023/07/04 10:27:15;;;;;;;5.72;2.20;;;23.50;99.90;;;;;;10369485;28;20204;-84
2023/07/04 10:33:12;;;;;;;5.15;2.05;;;23.40;99.90;;;;;;10379410;28;20216;-79
2023/07/04 10:38:47;;;;;;;5.25;2.20;;;23.20;99.90;;;;;;10389978;28;20289;-87
2023/07/04 10:44:20;;;;;;;16.35;2.75;;;22.80;99.90;;;;;;10358707;28;20244;-84
2023/07/04 10:49:47;;;;;;;11.00;2.15;;;22.40;99.90;;;;;;10371735;28;20484;-83
2023/07/04 10:55:14;;;;;;;10.82;2.03;;;22.50;99.90;;;;;;10358681;28;20516;-83
2023/07/04 11:00:41;;;;;;;4.13;2.35;;;23.40;99.90;;;;;;10401004;28;20287;-84
2023/07/04 11:06:10;;;;;;;7.43;1.83;;;23.80;99.90;;;;;;10373905;28;20304;-84
2023/07/04 11:11:33;;;;;;;3.30;1.65;;;24.50;99.90;;;;;;10371681;28;20209;-83
2023/07/04 11:16:59;;;;;;;6.45;1.90;;;23.80;99.90;;;;;;10312475;28;20198;-84
2023/07/04 11:22:38;;;;;;;4.43;1.48;;;24.00;99.90;;;;;;10296896;28;20250;-83
2023/07/04 11:28:18;;;;;;;4.28;1.30;;;24.70;99.90;;;;;;10283091;28;20202;-86
2023/07/04 11:34:03;;;;;;;3.92;1.23;;;24.70;99.90;;;;;;10332951;28;20233;-83
2023/07/04 11:39:31;;;;;;;4.53;2.50;;;24.80;99.90;;;;;;10323016;28;20482;-84
2023/07/04 11:45:05;;;;;;;5.57;1.45;;;24.80;99.90;;;;;;10328232;28;20221;-81
2023/07/04 11:50:46;;;;;;;2.15;1.00;;;25.00;99.90;;;;;;10323634;28;20200;-83
2023/07/04 11:56:23;;;;;;;2.85;1.33;;;25.50;99.90;;;;;;10321209;28;20209;-84
2023/07/04 12:01:55;;;;;;;2.85;1.00;;;25.20;99.90;;;;;;10330228;28;20242;-83
2023/07/04 12:07:21;;;;;;;3.67;1.38;;;24.70;99.90;;;;;;10322016;28;20416;-82
2023/07/04 12:12:44;;;;;;;8.82;1.58;;;25.00;99.90;;;;;;10335790;28;20206;-83
2023/07/04 12:18:21;;;;;;;3.10;1.10;;;25.70;99.90;;;;;;10329755;28;20226;-84
2023/07/04 12:23:44;;;;;;;11.38;1.27;;;25.20;99.90;;;;;;10315678;28;20238;-80
2023/07/04 12:29:05;;;;;;;3.65;1.25;;;24.60;99.90;;;;;;10330286;28;20237;-81
2023/07/04 12:34:36;;;;;;;4.93;1.27;;;24.10;99.90;;;;;;10335177;28;20206;-86
2023/07/04 12:40:02;;;;;;;5.38;0.80;;;24.20;99.90;;;;;;10338637;28;20234;-82
2023/07/04 12:45:29;;;;;;;4.38;1.10;;;24.00;99.90;;;;;;10354669;28;20217;-81
2023/07/04 12:50:53;;;;;;;4.75;1.30;;;23.70;99.90;;;;;;10308782;28;20248;-82
2023/07/04 12:56:15;;;;;;;12.20;1.23;;;24.30;99.90;;;;;;10341198;28;20198;-82
2023/07/04 13:01:37;;;;;;;4.60;1.00;;;24.50;99.90;;;;;;10345605;28;20233;-81
2023/07/04 13:06:58;;;;;;;1.35;0.98;;;24.70;99.90;;;;;;10331947;28;20548;-81
2023/07/04 13:12:28;;;;;;;2.00;1.02;;;25.30;99.90;;;;;;10317899;28;20209;-81
2023/07/04 13:17:55;;;;;;;1.85;0.90;;;24.70;99.90;;;;;;10348515;28;20399;-81
2023/07/04 13:23:19;;;;;;;3.00;0.80;;;23.90;99.90;;;;;;10325841;28;20317;-81
2023/07/04 13:28:48;;;;;;;5.45;0.93;;;23.60;99.90;;;;;;10354898;28;20194;-80
2023/07/04 13:34:16;;;;;;;4.63;1.35;;;23.50;99.90;;;;;;10354437;28;20256;-82
2023/07/04 13:39:38;;;;;;;3.10;0.90;;;23.40;99.90;;;;;;10365793;28;20221;-80
2023/07/04 13:45:02;;;;;;;4.28;1.10;;;23.40;99.90;;;;;;10339817;28;20209;-80
2023/07/04 13:50:27;;;;;;;24.75;1.60;;;23.20;99.90;;;;;;10352634;28;20300;-79
2023/07/04 13:55:49;;;;;;;4.18;1.50;;;23.10;99.90;;;;;;10354692;28;20229;-80
2023/07/04 14:01:12;;;;;;;5.60;0.90;;;23.10;99.90;;;;;;10348391;28;20226;-79
2023/07/04 14:06:53;;;;;;;22.77;2.60;;;22.90;99.90;;;;;;10352377;28;20238;-79
2023/07/04 14:12:17;;;;;;;2.50;0.90;;;22.80;99.90;;;;;;10364064;28;20213;-80
2023/07/04 14:17:38;;;;;;;11.80;1.27;;;22.80;99.90;;;;;;10337646;28;20226;-79
2023/07/04 14:23:19;;;;;;;5.32;1.23;;;22.70;99.90;;;;;;10331591;28;20253;-79
2023/07/04 14:28:41;;;;;;;6.65;1.08;;;22.60;99.90;;;;;;10312407;28;20205;-78
2023/07/04 14:34:02;;;;;;;1.65;1.00;;;22.30;99.90;;;;;;10342886;28;20241;-78
2023/07/04 14:39:23;;;;;;;5.03;1.20;;;22.30;99.90;;;;;;10336961;28;20198;-78
2023/07/04 14:44:46;;;;;;;2.40;1.17;;;22.60;1.00;;;;;;10351846;28;20241;-79
2023/07/04 14:50:08;;;;;;;3.00;1.33;;;22.50;1.00;;;;;;10314658;28;20401;-82
2023/07/04 14:55:29;;;;;;;2.00;1.15;;;22.30;1.00;;;;;;10364130;28;20198;-91
2023/07/04 15:00:52;;;;;;;8.57;1.70;;;22.10;99.90;;;;;;10324784;28;20554;-87
2023/07/04 15:06:16;;;;;;;6.32;1.10;;;22.10;99.90;;;;;;10337209;28;20206;-83
2023/07/04 15:11:37;;;;;;;2.83;1.35;;;22.00;99.90;;;;;;10340529;28;20228;-82
2023/07/04 15:16:58;;;;;;;2.05;0.90;;;21.80;99.90;;;;;;10322456;28;20277;-83
2023/07/04 15:22:19;;;;;;;1.23;0.73;;;22.10;1.00;;;;;;10332792;28;20232;-83
2023/07/04 15:27:41;;;;;;;5.63;1.30;;;22.00;1.00;;;;;;10339707;28;20572;-83
2023/07/04 15:33:02;;;;;;;7.47;1.17;;;21.90;1.00;;;;;;10328286;28;20214;-82
2023/07/04 15:38:24;;;;;;;6.38;0.98;;;21.60;99.90;;;;;;10314648;28;20187;-83
2023/07/04 15:43:45;;;;;;;2.25;1.00;;;21.60;99.90;;;;;;10303640;28;20240;-83
2023/07/04 15:49:07;;;;;;;2.33;1.08;;;21.60;99.90;;;;;;10354131;28;20197;-84
2023/07/04 15:54:28;;;;;;;1.98;1.13;;;21.70;99.90;;;;;;10321827;28;20206;-83
2023/07/04 15:59:50;;;;;;;2.53;1.23;;;21.70;99.90;;;;;;10290313;28;20206;-83
2023/07/04 16:05:12;;;;;;;2.63;0.90;;;21.80;99.90;;;;;;10286455;28;20210;-83
2023/07/04 16:10:33;;;;;;;2.28;1.10;;;22.00;99.90;;;;;;10314781;28;20522;-84
2023/07/04 16:15:55;;;;;;;1.73;0.90;;;22.20;99.90;;;;;;10327100;28;20269;-83
2023/07/04 16:21:16;;;;;;;2.00;0.98;;;22.10;99.90;;;;;;10325784;28;20232;-83
2023/07/04 16:26:38;;;;;;;3.58;1.92;;;21.80;99.90;;;;;;10335524;28;20205;-84
2023/07/04 16:31:59;;;;;;;3.63;1.42;;;21.50;99.90;;;;;;10314329;28;20210;-83
2023/07/04 16:37:21;;;;;;;1.80;0.98;;;21.30;99.90;;;;;;10299267;28;20288;-84
2023/07/04 16:42:42;;;;;;;1.92;1.15;;;21.10;99.90;;;;;;10353747;28;20225;-84
2023/07/04 16:48:04;;;;;;;3.03;1.50;;;21.10;99.90;;;;;;10348447;28;20197;-83
2023/07/04 16:53:27;;;;;;;6.60;2.22;;;20.90;99.90;;;;;;10356848;28;20495;-83
2023/07/04 16:58:48;;;;;;;3.28;1.65;;;20.80;99.90;;;;;;10347210;28;20198;-83
2023/07/04 17:04:09;;;;;;;2.03;1.40;;;20.60;99.90;;;;;;10319839;28;20232;-83
2023/07/04 17:09:31;;;;;;;4.88;1.75;;;20.20;99.90;;;;;;10345529;28;20609;-82
2023/07/04 17:14:52;;;;;;;1.60;1.08;;;20.20;99.90;;;;;;10332863;28;20205;-83
2023/07/04 17:20:14;;;;;;;3.65;1.02;;;19.80;99.90;;;;;;10354814;28;20559;-84
2023/07/04 17:25:35;;;;;;;1.60;1.10;;;19.60;99.90;;;;;;10309478;28;20269;-83
2023/07/04 17:31:00;;;;;;;2.88;1.15;;;19.50;99.90;;;;;;10359414;28;20206;-83
2023/07/04 17:36:22;;;;;;;2.20;1.08;;;19.40;99.90;;;;;;10340996;28;20269;-83
2023/07/04 17:41:43;;;;;;;4.57;1.48;;;19.50;99.90;;;;;;10361641;28;20225;-83
2023/07/04 17:47:04;;;;;;;2.00;1.17;;;19.40;99.90;;;;;;10344916;28;20202;-83
2023/07/04 17:52:27;;;;;;;2.25;1.27;;;19.30;99.90;;;;;;10353609;28;20554;-83
2023/07/04 17:57:48;;;;;;;5.45;1.55;;;19.00;99.90;;;;;;10344686;28;20200;-82
2023/07/04 18:03:10;;;;;;;2.47;1.40;;;18.70;99.90;;;;;;10359077;28;20232;-84
2023/07/04 18:08:33;;;;;;;3.92;1.83;;;18.30;1.00;;;;;;10354597;28;20302;-83
2023/07/04 18:13:56;;;;;;;4.35;1.38;;;17.90;1.00;;;;;;10357835;28;20248;-83
2023/07/04 18:19:18;;;;;;;3.85;1.65;;;17.60;1.00;;;;;;10348122;28;20414;-84
2023/07/04 18:24:39;;;;;;;1.73;1.20;;;17.50;1.00;;;;;;10332193;28;20231;-83
2023/07/04 18:30:00;;;;;;;3.92;1.75;;;17.30;1.00;;;;;;10343441;28;20207;-83
2023/07/04 18:35:22;;;;;;;2.05;1.20;;;17.30;1.00;;;;;;10366714;28;20204;-83
2023/07/04 18:40:47;;;;;;;3.90;1.58;;;17.10;1.00;;;;;;10356821;28;20270;-83
2023/07/04 18:46:10;;;;;;;5.72;1.50;;;17.20;1.00;;;;;;10343040;28;20300;-83
2023/07/04 18:51:35;;;;;;;3.50;1.33;;;17.20;99.90;;;;;;10328777;28;20209;-82
2023/07/04 18:56:56;;;;;;;3.00;1.58;;;17.20;99.90;;;;;;10316247;28;20354;-83
2023/07/04 19:02:17;;;;;;;3.80;1.85;;;17.20;99.90;;;;;;10358340;28;20236;-83
2023/07/04 19:07:39;;;;;;;1.83;1.30;;;17.10;99.90;;;;;;10301767;28;20543;-83
2023/07/04 19:13:00;;;;;;;1.77;1.17;;;16.90;99.90;;;;;;10322980;28;20213;-82
2023/07/04 19:18:22;;;;;;;2.78;1.40;;;16.90;99.90;;;;;;10328460;28;20237;-83
2023/07/04 19:23:43;;;;;;;5.18;1.40;;;16.90;99.90;;;;;;10355412;28;20227;-83
2023/07/04 19:29:04;;;;;;;3.80;1.65;;;16.80;99.90;;;;;;10340385;28;20190;-83
2023/07/04 19:34:27;;;;;;;3.08;1.88;;;16.80;99.90;;;;;;10320445;28;20216;-83
2023/07/04 19:39:48;;;;;;;4.82;1.88;;;16.70;99.90;;;;;;10354225;28;20227;-83
2023/07/04 19:45:09;;;;;;;3.13;2.40;;;16.60;99.90;;;;;;10354441;28;20224;-82
2023/07/04 19:50:31;;;;;;;3.10;2.65;;;16.50;99.90;;;;;;10335834;28;20515;-83
2023/07/04 19:56:01;;;;;;;3.58;2.47;;;16.60;99.90;;;;;;10340673;28;20208;-84
2023/07/04 20:01:27;;;;;;;4.88;3.40;;;16.60;99.90;;;;;;10340516;28;20231;-83
2023/07/04 20:06:48;;;;;;;4.72;2.22;;;16.60;99.90;;;;;;10350513;28;20231;-86
2023/07/04 20:12:11;;;;;;;4.85;2.25;;;16.50;99.90;;;;;;10340115;28;20201;-83
2023/07/04 20:17:32;;;;;;;6.95;3.30;;;16.50;99.90;;;;;;10340276;28;20220;-83
2023/07/04 20:22:54;;;;;;;4.25;2.63;;;16.50;99.90;;;;;;10355017;28;20452;-83
2023/07/04 20:28:15;;;;;;;10.27;6.50;;;16.40;99.90;;;;;;10335077;28;20247;-83
2023/07/04 20:33:37;;;;;;;5.57;3.75;;;16.30;99.90;;;;;;10331775;28;20291;-82
2023/07/04 20:38:58;;;;;;;3.90;2.47;;;16.20;99.90;;;;;;10330128;28;20369;-86
2023/07/04 20:44:20;;;;;;;4.00;2.90;;;16.10;99.90;;;;;;10347674;28;20236;-83
2023/07/04 20:49:41;;;;;;;7.25;4.30;;;16.10;99.90;;;;;;10342838;28;20283;-83
2023/07/04 20:55:04;;;;;;;5.68;4.50;;;16.10;99.90;;;;;;10361165;28;20232;-83
2023/07/04 21:00:27;;;;;;;13.52;7.40;;;16.10;99.90;;;;;;10340986;28;20495;-83
2023/07/04 21:05:48;;;;;;;13.10;6.90;;;15.90;99.90;;;;;;10358213;28;20267;-83
2023/07/04 21:11:10;;;;;;;11.55;6.13;;;15.80;99.90;;;;;;10357308;28;20816;-84
2023/07/04 21:16:31;;;;;;;7.28;4.00;;;15.70;99.90;;;;;;10346684;28;20210;-84
2023/07/04 21:21:53;;;;;;;5.47;3.25;;;15.60;99.90;;;;;;10355758;28;20232;-83
2023/07/04 21:27:14;;;;;;;4.63;2.78;;;15.60;99.90;;;;;;10328796;28;20206;-83
2023/07/04 21:32:35;;;;;;;4.95;3.28;;;15.60;99.90;;;;;;10319124;28;20212;-83
2023/07/04 21:37:57;;;;;;;5.78;3.15;;;15.50;99.90;;;;;;10335492;28;20510;-84
2023/07/04 21:43:18;;;;;;;7.13;3.13;;;15.50;99.90;;;;;;10319111;28;20244;-83
2023/07/04 21:48:39;;;;;;;4.13;2.30;;;15.40;99.90;;;;;;10357783;28;20192;-83
2023/07/04 21:54:02;;;;;;;4.05;2.05;;;15.30;99.90;;;;;;10354211;28;20207;-86
2023/07/04 21:59:24;;;;;;;4.43;2.35;;;15.20;99.90;;;;;;10344884;28;20459;-84
2023/07/04 22:04:45;;;;;;;5.60;2.08;;;15.20;99.90;;;;;;10358332;28;20246;-84
2023/07/04 22:10:07;;;;;;;3.80;2.63;;;15.20;99.90;;;;;;10353783;28;20394;-83
2023/07/04 22:15:28;;;;;;;3.33;2.22;;;15.20;99.90;;;;;;10358413;28;20197;-83
2023/07/04 22:20:50;;;;;;;3.70;2.30;;;15.20;99.90;;;;;;10307580;28;20212;-85
2023/07/04 22:26:12;;;;;;;2.35;2.00;;;15.20;99.90;;;;;;10337701;28;20233;-83
2023/07/04 22:31:33;;;;;;;6.15;3.10;;;15.20;99.90;;;;;;10357457;28;20196;-87
2023/07/04 22:36:54;;;;;;;6.03;1.80;;;15.10;99.90;;;;;;10355645;28;20445;-83
2023/07/04 22:42:15;;;;;;;4.22;2.28;;;15.00;99.90;;;;;;10304152;28;20245;-88
2023/07/04 22:47:37;;;;;;;2.90;1.85;;;14.80;99.90;;;;;;10317836;28;20404;-85
2023/07/04 22:52:58;;;;;;;3.95;2.25;;;14.90;99.90;;;;;;10329495;28;20303;-83
2023/07/04 22:58:20;;;;;;;4.88;2.00;;;;;;;;;;10343673;28;20229;-83
2023/07/04 23:03:41;;;;;;;4.82;1.85;;;;;;;;;;10312501;28;20227;-83
2023/07/04 23:09:07;;;;;;;3.47;1.88;;;14.60;99.90;;;;;;10302249;28;20257;-83
2023/07/04 23:14:31;;;;;;;5.93;2.97;;;14.60;99.90;;;;;;10302019;28;20207;-83
2023/07/04 23:19:52;;;;;;;4.45;2.85;;;14.60;99.90;;;;;;10331186;28;20207;-83
2023/07/04 23:25:14;;;;;;;4.70;2.97;;;14.60;99.90;;;;;;10341813;28;20238;-83
2023/07/04 23:30:35;;;;;;;52.45;20.20;;;14.60;99.90;;;;;;10334778;28;20204;-82
2023/07/04 23:35:58;;;;;;;23.63;12.57;;;14.60;99.90;;;;;;10287795;28;20201;-82
2023/07/04 23:41:19;;;;;;;9.02;4.78;;;14.50;99.90;;;;;;10287493;28;20513;-83
2023/07/04 23:46:41;;;;;;;9.50;6.00;;;14.30;99.90;;;;;;10318630;28;20209;-82
2023/07/04 23:52:02;;;;;;;7.75;4.68;;;14.20;99.90;;;;;;10300561;28;20555;-82
2023/07/04 23:57:24;;;;;;;6.50;4.05;;;14.20;99.90;;;;;;10313848;28;20205;-82
